Time;durP1;ratioP1;P1;durP2;ratioP2;P2;SDS_P1;SDS_P2;PMS_P1;PMS_P2;Temp;Humidity;BMP_temperature;BMP_pressure;BME280_temperature;BME280_humidity;BME280_pressure;Samples;Min_cycle;Max_cycle;Signal;HPM_P1;HPM_P2
2022/07/29 00:01:33;;;;;;;5.93;2.00;;;;;;;18.65;78.25;100745.03;5050465;28;20521;-81
2022/07/29 00:03:58;;;;;;;5.95;1.70;;;;;;;18.42;77.39;100750.75;5050170;27;20074;-81
2022/07/29 00:06:23;;;;;;;8.68;1.85;;;;;;;18.46;76.88;100743.31;5050106;28;20032;-81
2022/07/29 00:08:49;;;;;;;5.35;2.05;;;;;;;18.67;76.63;100743.06;5049985;28;20108;-81
2022/07/29 00:11:14;;;;;;;3.38;1.55;;;;;;;18.74;77.11;100739.69;5050050;28;20068;-81
2022/07/29 00:13:39;;;;;;;3.25;2.08;;;;;;;18.69;78.04;100741.09;5049959;28;20021;-81
2022/07/29 00:16:05;;;;;;;5.20;1.98;;;;;;;18.72;78.05;100735.47;5049915;28;20024;-81
2022/07/29 00:18:31;;;;;;;3.40;1.30;;;;;;;18.71;78.73;100736.47;5049894;28;20466;-81
2022/07/29 00:20:56;;;;;;;3.95;1.52;;;;;;;18.65;80.07;100740.56;5049771;28;20025;-81
2022/07/29 00:23:22;;;;;;;3.30;2.03;;;;;;;18.55;80.29;100740.59;5048491;28;20389;-81
2022/07/29 00:25:47;;;;;;;4.43;1.88;;;;;;;18.53;80.50;100742.59;5049987;28;20453;-81
2022/07/29 00:28:12;;;;;;;3.33;1.85;;;;;;;18.54;82.76;100744.28;5050182;28;20021;-81
2022/07/29 00:30:38;;;;;;;3.67;1.65;;;;;;;18.13;82.18;100735.75;5048983;28;20048;-81
2022/07/29 00:33:03;;;;;;;4.32;1.55;;;;;;;18.18;80.95;100735.31;5049627;28;20025;-81
2022/07/29 00:35:43;;;;;;;5.85;1.85;;;;;;;18.23;82.34;100741.03;5049434;28;20472;-81
2022/07/29 00:38:08;;;;;;;3.95;2.13;;;;;;;18.10;81.13;100745.84;5049650;28;20397;-81
2022/07/29 00:40:34;;;;;;;2.20;1.60;;;;;;;18.19;82.30;100751.13;5049514;28;20051;-81
2022/07/29 00:42:59;;;;;;;4.18;1.92;;;;;;;18.24;82.08;100754.16;5048159;28;20033;-81
2022/07/29 00:45:25;;;;;;;3.67;2.33;;;;;;;18.29;81.02;100755.56;5049746;28;20033;-81
2022/07/29 00:47:50;;;;;;;4.45;1.92;;;;;;;18.31;81.48;100749.13;5049411;28;20482;-81
2022/07/29 00:50:16;;;;;;;5.95;2.33;;;;;;;18.39;83.77;100751.88;5049454;28;20077;-81
2022/07/29 00:52:42;;;;;;;3.38;2.35;;;;;;;18.43;83.41;100752.44;5049510;28;20029;-81
2022/07/29 00:55:10;;;;;;;3.67;1.98;;;;;;;18.41;83.90;100751.75;5049379;28;20203;-81
2022/07/29 00:57:36;;;;;;;4.45;1.73;;;;;;;18.31;84.30;100746.47;5049475;28;20029;-81
2022/07/29 01:00:06;;;;;;;4.57;2.13;;;;;;;18.54;84.57;100746.06;5049062;28;20084;-81
2022/07/29 01:02:31;;;;;;;5.63;1.80;;;;;;;18.50;84.72;100750.84;5049325;28;20025;-81
2022/07/29 01:04:57;;;;;;;4.75;2.10;;;;;;;18.45;83.52;100754.94;5049223;28;20036;-81
2022/07/29 01:07:24;;;;;;;1.88;1.58;;;;;;;18.49;84.60;100751.84;5049102;28;20029;-81
2022/07/29 01:09:50;;;;;;;4.80;2.03;;;;;;;18.42;84.92;100750.75;5047769;28;20052;-81
2022/07/29 01:12:22;;;;;;;4.43;2.10;;;;;;;18.57;84.60;100740.47;5047918;28;20474;-81
2022/07/29 01:14:49;;;;;;;6.03;2.60;;;;;;;18.38;84.94;100755.53;5049103;28;20029;-81
2022/07/29 01:17:23;;;;;;;6.22;2.22;;;;;;;18.38;84.62;100749.38;5048998;28;20032;-81
2022/07/29 01:20:18;;;;;;;3.50;2.22;;;;;;;18.24;84.76;100743.53;5048854;28;20037;-81
2022/07/29 01:22:59;;;;;;;6.45;2.58;;;;;;;18.53;84.12;100739.09;5084842;28;20040;-81
2022/07/29 01:25:43;;;;;;;3.27;2.03;;;;;;;18.26;85.94;100745.22;5048984;28;20108;-81
2022/07/29 01:28:37;;;;;;;4.47;2.55;;;;;;;18.31;85.55;100748.28;5049034;28;20048;-81
2022/07/29 01:31:04;;;;;;;4.80;1.85;;;;;;;18.27;86.13;100754.88;5048716;28;20029;-81
2022/07/29 01:33:48;;;;;;;4.78;2.38;;;;;;;18.30;85.47;100751.91;5048588;28;20029;-81
2022/07/29 01:36:30;;;;;;;3.95;2.38;;;;;;;18.55;84.69;100748.59;5048887;28;20049;-81
2022/07/29 01:39:08;;;;;;;4.38;2.55;;;;;;;18.62;85.69;100751.47;5048677;28;20039;-81
2022/07/29 01:41:37;;;;;;;6.25;2.17;;;;;;;18.47;85.56;100735.19;5053578;28;20037;-81
2022/07/29 01:44:11;;;;;;;4.68;2.72;;;;;;;18.53;86.17;100745.25;5050497;27;20031;-81
2022/07/29 01:46:39;;;;;;;4.70;2.72;;;;;;;18.39;86.78;100751.06;5055251;28;20069;-81
2022/07/29 01:49:16;;;;;;;3.53;2.22;;;;;;;18.55;87.09;100742.44;5054247;28;20025;-81
2022/07/29 01:51:54;;;;;;;3.80;2.30;;;;;;;18.61;86.16;100750.66;5055343;28;20055;-81
2022/07/29 01:54:34;;;;;;;4.70;2.50;;;;;;;18.53;87.86;100734.59;5055347;28;20494;-81
2022/07/29 01:57:00;;;;;;;3.22;2.47;;;;;;;18.44;87.25;100740.78;5055298;28;20077;-81
2022/07/29 01:59:27;;;;;;;5.38;2.40;;;;;;;18.45;87.33;100744.31;5055006;28;20032;-81
2022/07/29 02:01:54;;;;;;;2.97;2.33;;;;;;;18.44;88.32;100748.78;5055158;28;20036;-81
2022/07/29 02:04:20;;;;;;;3.83;2.53;;;;;;;18.30;88.79;100746.59;5054019;28;20359;-81
2022/07/29 02:06:50;;;;;;;6.15;2.92;;;;;;;18.30;88.85;100746.59;5055111;28;20032;-81
2022/07/29 02:09:16;;;;;;;5.70;2.65;;;;;;;18.24;90.18;100748.84;5055071;28;20111;-81
2022/07/29 02:11:55;;;;;;;5.63;2.40;;;;;;;18.27;90.38;100744.25;5055407;28;20025;-81
2022/07/29 02:14:22;;;;;;;5.32;2.63;;;;;;;18.13;90.78;100740.25;5053829;28;20120;-81
2022/07/29 02:16:51;;;;;;;3.22;2.10;;;;;;;18.15;91.53;100744.44;5055131;28;20028;-81
2022/07/29 02:19:19;;;;;;;2.72;2.20;;;;;;;18.11;91.96;100747.50;5054584;28;20393;-81
2022/07/29 02:21:46;;;;;;;4.45;2.38;;;;;;;18.09;91.83;100745.00;5055086;28;20447;-81
2022/07/29 02:24:13;;;;;;;6.28;3.08;;;;;;;18.01;91.43;100744.91;5055153;28;20053;-81
2022/07/29 02:26:42;;;;;;;5.72;2.60;;;;;;;18.05;91.60;100740.97;5054958;28;20065;-81
2022/07/29 02:29:09;;;;;;;13.25;3.30;;;;;;;17.89;91.43;100732.75;5054641;28;20017;-81
2022/07/29 02:31:36;;;;;;;4.95;3.08;;;;;;;17.81;91.87;100739.59;5054817;28;20021;-81
2022/07/29 02:34:04;;;;;;;5.07;2.92;;;;;;;17.79;92.34;100743.34;5054895;28;20021;-81
2022/07/29 02:36:31;;;;;;;6.10;3.50;;;;;;;17.67;92.81;100740.03;5054716;28;20033;-81
2022/07/29 02:39:00;;;;;;;4.55;2.75;;;;;;;17.64;92.87;100737.66;5054568;28;20478;-81
2022/07/29 02:41:46;;;;;;;3.95;2.70;;;;;;;17.67;93.52;100740.03;5054537;28;20501;-81
2022/07/29 02:44:15;;;;;;;3.67;2.42;;;;;;;17.50;94.44;100744.25;5054587;28;20033;-81
2022/07/29 02:47:07;;;;;;;4.63;2.95;;;;;;;17.55;94.55;100741.16;5054740;28;20025;-81
2022/07/29 02:49:38;;;;;;;5.25;2.20;;;;;;;17.50;94.72;100743.41;5053381;28;20017;-81
2022/07/29 02:52:09;;;;;;;4.60;2.60;;;;;;;17.44;95.33;100745.66;5052672;28;20141;-81
2022/07/29 02:54:57;;;;;;;4.83;3.00;;;;;;;17.37;95.79;100738.38;5051429;28;20021;-81
2022/07/29 02:57:51;;;;;;;4.15;3.10;;;;;;;17.33;95.87;100743.13;5051475;28;20394;-81
2022/07/29 03:00:17;;;;;;;4.68;3.05;;;;;;;17.12;95.24;100742.41;5051128;28;20029;-81
2022/07/29 03:02:44;;;;;;;6.22;3.03;;;;;;;17.14;95.58;100748.44;5049957;28;20029;-81
2022/07/29 03:05:16;;;;;;;4.32;3.22;;;;;;;17.12;95.43;100739.75;5049916;28;20116;-81
2022/07/29 03:07:46;;;;;;;8.48;3.08;;;;;;;17.04;95.31;100741.31;5051120;28;20025;-81
2022/07/29 03:10:12;;;;;;;3.50;2.72;;;;;;;17.00;96.20;100739.91;5049740;28;20088;-81
2022/07/29 03:12:39;;;;;;;4.72;3.60;;;;;;;16.97;95.02;100753.44;5049653;28;20377;-81
2022/07/29 03:15:05;;;;;;;4.50;3.00;;;;;;;17.00;95.92;100747.88;5050930;28;20025;-81
2022/07/29 03:17:31;;;;;;;8.60;4.78;;;;;;;16.81;94.64;100763.72;5051163;28;20064;-81
2022/07/29 03:19:58;;;;;;;7.65;3.53;;;;;;;16.92;93.47;100754.81;5050783;28;20033;-81
2022/07/29 03:22:24;;;;;;;4.82;2.75;;;;;;;17.00;93.25;100752.31;5050958;28;20036;-81
2022/07/29 03:24:49;;;;;;;5.43;3.17;;;;;;;16.93;92.48;100751.22;5051059;28;20029;-81
2022/07/29 03:27:15;;;;;;;8.82;3.08;;;;;;;16.95;92.72;100760.69;5050966;28;20486;-81
2022/07/29 03:29:40;;;;;;;5.50;2.60;;;;;;;16.97;93.92;100760.56;5050931;28;20441;-81
2022/07/29 03:32:06;;;;;;;6.28;2.50;;;;;;;16.95;93.54;100754.56;5050500;28;20550;-81
2022/07/29 03:34:31;;;;;;;6.03;3.05;;;;;;;16.99;93.25;100751.50;5050557;28;20021;-81
2022/07/29 03:36:57;;;;;;;7.65;2.90;;;;;;;17.02;92.63;100767.16;5050766;28;20024;-81
2022/07/29 03:39:27;;;;;;;7.88;3.55;;;;;;;17.03;91.88;100763.50;5050621;28;20386;-81
2022/07/29 03:41:56;;;;;;;6.05;3.33;;;;;;;17.04;90.10;100762.53;5050522;28;20031;-81
2022/07/29 03:44:23;;;;;;;4.82;3.42;;;;;;;17.04;91.14;100770.50;5050700;28;20017;-81
2022/07/29 03:46:51;;;;;;;4.70;2.67;;;;;;;17.04;89.55;100754.59;5050670;28;20367;-81
2022/07/29 03:49:19;;;;;;;5.88;2.70;;;;;;;17.10;89.04;100754.97;5050644;28;20025;-81
2022/07/29 03:51:45;;;;;;;10.45;3.20;;;;;;;17.02;90.73;100761.84;5050425;28;20409;-80
2022/07/29 03:54:11;;;;;;;6.93;2.70;;;;;;;17.10;89.97;100757.63;5050375;28;20172;-81
2022/07/29 03:56:46;;;;;;;5.13;2.50;;;;;;;17.28;89.11;100758.66;5050290;28;20545;-81
2022/07/29 03:59:13;;;;;;;4.30;2.05;;;;;;;17.19;89.83;100759.47;5050290;28;20039;-81
2022/07/29 04:01:39;;;;;;;4.72;2.00;;;;;;;17.19;90.58;100756.81;5050441;28;20157;-81
2022/07/29 04:04:05;;;;;;;2.88;1.70;;;;;;;17.18;91.11;100765.75;5049132;28;20036;-81
2022/07/29 04:06:41;;;;;;;3.80;2.10;;;;;;;17.19;90.50;100768.25;5048774;28;20021;-81
2022/07/29 04:09:07;;;;;;;2.85;1.80;;;;;;;17.10;92.08;100761.16;5048780;28;20479;-81
2022/07/29 04:11:32;;;;;;;6.20;2.13;;;;;;;17.18;91.27;100763.09;5050081;28;20108;-81
2022/07/29 04:13:58;;;;;;;3.88;1.98;;;;;;;17.17;92.34;100764.09;5050209;28;20025;-81
2022/07/29 04:16:23;;;;;;;3.25;2.03;;;;;;;17.13;91.40;100775.94;5050127;28;20100;-81
2022/07/29 04:18:48;;;;;;;3.28;1.75;;;;;;;17.12;92.06;100776.91;5050060;28;20027;-81
2022/07/29 04:21:14;;;;;;;3.95;1.83;;;;;;;17.07;91.66;100766.72;5049866;28;20100;-81
2022/07/29 04:23:40;;;;;;;3.10;2.00;;;;;;;16.99;92.96;100767.41;5049937;28;20021;-81
2022/07/29 04:26:06;;;;;;;2.40;1.70;;;;;;;16.93;93.11;100775.91;5049790;28;20021;-81
2022/07/29 04:28:31;;;;;;;3.35;1.63;;;;;;;16.94;93.16;100774.94;5049847;28;20112;-81
2022/07/29 04:30:56;;;;;;;4.20;1.70;;;;;;;16.90;93.26;100778.81;5049680;28;20093;-81
2022/07/29 04:33:22;;;;;;;3.75;1.58;;;;;;;16.83;94.49;100773.25;5049933;28;20127;-81
2022/07/29 04:35:47;;;;;;;3.45;1.67;;;;;;;16.84;94.11;100768.75;5048518;28;20124;-81
2022/07/29 04:38:12;;;;;;;3.35;1.83;;;;;;;16.82;94.67;100778.66;5049685;28;20037;-81
2022/07/29 04:40:38;;;;;;;2.05;1.35;;;;;;;16.76;94.06;100777.34;5049655;28;20032;-80
2022/07/29 04:43:03;;;;;;;3.38;1.48;;;;;;;16.74;94.16;100778.47;5049725;28;20028;-81
2022/07/29 04:45:28;;;;;;;4.45;1.73;;;;;;;16.70;94.68;100775.25;5049605;28;20467;-80
2022/07/29 04:47:55;;;;;;;4.95;1.70;;;;;;;16.65;94.68;100770.38;5049592;28;20026;-81
2022/07/29 04:50:20;;;;;;;2.92;1.40;;;;;;;16.48;95.14;100784.25;5048356;28;20209;-81
2022/07/29 04:52:45;;;;;;;3.85;1.55;;;;;;;16.57;95.66;100779.97;5049875;28;20371;-81
2022/07/29 04:55:11;;;;;;;4.78;1.73;;;;;;;16.62;95.43;100781.22;5049417;28;20478;-81
2022/07/29 04:57:36;;;;;;;2.80;1.70;;;;;;;16.66;95.82;100782.63;5049246;28;20028;-81
2022/07/29 05:00:04;;;;;;;4.95;2.10;;;;;;;16.74;95.67;100778.47;5049351;28;20374;-81
2022/07/29 05:02:29;;;;;;;4.40;1.60;;;;;;;16.69;96.75;100781.53;5049529;28;20161;-81
2022/07/29 05:04:55;;;;;;;2.00;1.30;;;;;;;16.68;96.83;100777.19;5049459;28;20104;-81
2022/07/29 05:07:20;;;;;;;3.22;1.40;;;;;;;16.79;96.06;100778.94;5049052;28;20021;-81
2022/07/29 05:09:46;;;;;;;3.03;1.40;;;;;;;16.75;96.47;100781.00;5049275;28;20033;-81
2022/07/29 05:12:11;;;;;;;2.88;1.25;;;;;;;16.83;96.70;100777.72;5049287;28;20028;-81
2022/07/29 05:14:37;;;;;;;2.20;1.17;;;;;;;16.82;97.01;100776.88;5048869;28;20036;-81
2022/07/29 05:17:02;;;;;;;4.78;1.50;;;;;;;16.90;96.55;100776.16;5048822;28;20048;-81
2022/07/29 05:19:28;;;;;;;1.48;1.20;;;;;;;16.94;97.04;100784.69;5048810;28;20039;-81
2022/07/29 05:21:53;;;;;;;7.85;1.80;;;;;;;16.98;97.20;100784.31;5049262;28;20053;-81
2022/07/29 05:24:18;;;;;;;5.80;1.70;;;;;;;17.08;97.42;100789.63;5047888;28;20067;-81
2022/07/29 05:26:44;;;;;;;4.20;1.55;;;;;;;17.09;97.17;100791.31;5049161;28;20029;-81
2022/07/29 05:29:09;;;;;;;4.75;2.08;;;;;;;17.17;96.78;100796.75;5049060;28;20112;-81
2022/07/29 05:31:34;;;;;;;5.95;1.50;;;;;;;17.30;96.42;100791.19;5049007;28;20367;-81
2022/07/29 05:34:00;;;;;;;3.78;1.45;;;;;;;17.37;96.64;100794.13;5048924;28;20116;-81
2022/07/29 05:36:25;;;;;;;7.00;1.95;;;;;;;17.36;96.45;100795.94;5049104;28;20070;-81
2022/07/29 05:38:51;;;;;;;3.88;1.85;;;;;;;17.46;96.50;100803.91;5048703;28;20112;-81
2022/07/29 05:41:17;;;;;;;5.05;1.50;;;;;;;17.51;96.00;100804.31;5048808;28;20033;-81
2022/07/29 05:43:43;;;;;;;3.42;1.25;;;;;;;17.53;96.19;100809.50;5048686;28;20431;-81
2022/07/29 05:46:08;;;;;;;4.72;1.30;;;;;;;17.66;95.47;100804.75;5047507;28;20439;-81
2022/07/29 05:48:33;;;;;;;2.58;1.33;;;;;;;17.69;95.78;100807.09;5048629;28;20029;-81
2022/07/29 05:50:59;;;;;;;2.80;1.40;;;;;;;17.70;96.05;100806.13;5048546;28;20025;-81
2022/07/29 05:53:24;;;;;;;5.78;1.45;;;;;;;17.75;95.84;100808.38;5048994;28;20029;-81
2022/07/29 05:55:50;;;;;;;2.65;1.13;;;;;;;17.84;95.37;100812.88;5048671;28;20029;-81
2022/07/29 05:58:16;;;;;;;5.25;1.58;;;;;;;17.87;93.84;100819.72;5048576;28;20056;-81
2022/07/29 06:00:42;;;;;;;7.43;1.65;;;;;;;18.02;94.07;100819.13;5048631;28;20025;-81
2022/07/29 06:03:07;;;;;;;4.82;1.40;;;;;;;18.17;91.95;100832.00;5048905;28;20368;-81
2022/07/29 06:05:32;;;;;;;2.20;1.20;;;;;;;18.37;91.66;100824.81;5048549;28;20028;-81
2022/07/29 06:07:58;;;;;;;3.53;1.10;;;;;;;18.39;92.82;100822.84;5048781;28;20021;-81
2022/07/29 06:10:24;;;;;;;3.88;1.33;;;;;;;18.47;92.75;100825.59;5048523;28;20029;-81
2022/07/29 06:12:50;;;;;;;4.30;1.17;;;;;;;18.50;92.75;100821.81;5048636;28;20119;-81
2022/07/29 06:15:15;;;;;;;5.68;1.63;;;;;;;18.58;91.19;100821.91;5048592;28;20100;-81
2022/07/29 06:17:40;;;;;;;4.68;1.65;;;;;;;18.78;90.23;100828.84;5048447;28;20028;-81
2022/07/29 06:20:06;;;;;;;3.47;1.30;;;;;;;18.91;90.80;100831.16;5048128;28;20029;-81
2022/07/29 06:22:31;;;;;;;3.72;1.48;;;;;;;19.03;90.49;100829.97;5048586;28;20025;-81
2022/07/29 06:24:57;;;;;;;7.95;1.55;;;;;;;19.14;89.79;100830.78;5048479;28;20191;-81
2022/07/29 06:27:22;;;;;;;5.07;1.85;;;;;;;19.24;87.73;100826.22;5049286;28;20036;-81
2022/07/29 06:29:47;;;;;;;4.28;1.58;;;;;;;19.33;87.18;100830.66;5051809;28;20546;-81
2022/07/29 06:32:13;;;;;;;5.30;1.75;;;;;;;19.62;85.97;100827.75;5051611;28;20509;-81
2022/07/29 06:34:38;;;;;;;3.90;1.95;;;;;;;20.64;81.79;100819.34;5051975;28;20036;-81
2022/07/29 06:37:07;;;;;;;4.53;1.50;;;;;;;22.85;67.33;100819.38;5051816;28;20053;-81
2022/07/29 06:39:36;;;;;;;4.80;2.08;;;;;;;23.99;63.57;100822.31;5050365;28;20035;-81
2022/07/29 06:42:04;;;;;;;5.45;1.50;;;;;;;27.80;48.31;100829.00;5051796;28;20037;-82
2022/07/29 06:44:29;;;;;;;5.80;1.40;;;;;;;29.97;40.26;100823.94;5051617;28;20076;-81
2022/07/29 06:46:55;;;;;;;9.82;2.03;;;;;;;31.76;36.59;100819.22;5051648;28;20029;-81
2022/07/29 06:49:21;;;;;;;6.18;1.55;;;;;;;33.59;33.13;100823.22;5051496;28;20052;-82
2022/07/29 06:51:46;;;;;;;5.40;1.08;;;;;;;35.70;30.92;100832.16;5051697;28;20462;-82
2022/07/29 06:54:11;;;;;;;5.72;1.02;;;;;;;37.02;28.45;100833.91;5051784;28;20025;-82
2022/07/29 06:56:37;;;;;;;4.50;1.10;;;;;;;38.05;26.59;100831.22;5051554;28;20427;-82
2022/07/29 06:59:04;;;;;;;4.72;1.17;;;;;;;38.66;26.16;100825.53;5051339;28;20427;-82
2022/07/29 07:01:29;;;;;;;3.63;1.02;;;;;;;39.59;24.56;100824.94;5051600;28;20021;-82
2022/07/29 07:03:54;;;;;;;3.90;0.90;;;;;;;39.95;24.05;100824.59;5051542;28;20033;-82
2022/07/29 07:06:20;;;;;;;;;;;;;;;40.66;23.16;100824.84;5052340;28;20077;-82
2022/07/29 07:08:45;;;;;;;;;;;;;;;40.77;22.70;100834.66;5051446;28;19948;-83
2022/07/29 07:11:11;;;;;;;;;;;;;;;40.46;22.40;100829.53;5051660;28;19924;-82
2022/07/29 07:13:36;;;;;;;;;;;;;;;41.22;21.75;100832.34;5052090;28;19949;-82
2022/07/29 07:16:01;;;;;;;8.80;1.00;;;;;;;41.60;21.56;100840.50;5051463;28;19912;-83
2022/07/29 07:18:27;;;;;;;4.50;0.77;;;;;;;41.81;21.11;100827.22;5050709;28;20381;-83
2022/07/29 07:20:53;;;;;;;6.10;1.35;;;;;;;41.71;21.73;100828.22;5051113;28;20549;-83
2022/07/29 07:23:18;;;;;;;3.25;1.17;;;;;;;43.30;20.51;100816.56;5051027;28;20035;-83
2022/07/29 07:25:43;;;;;;;4.60;1.05;;;;;;;43.21;20.71;100823.97;5051055;28;20021;-83
2022/07/29 07:28:09;;;;;;;4.18;1.05;;;;;;;43.84;20.02;100818.50;5050859;28;20105;-83
2022/07/29 07:30:35;;;;;;;3.08;0.95;;;;;;;45.05;18.11;100815.19;5049876;28;20120;-83
2022/07/29 07:33:00;;;;;;;5.20;1.13;;;;;;;44.92;18.56;100819.75;5050768;28;20067;-83
2022/07/29 07:35:27;;;;;;;3.90;0.77;;;;;;;44.69;19.22;100821.03;5050621;28;20413;-83
2022/07/29 07:37:53;;;;;;;4.38;0.90;;;;;;;45.47;18.28;100828.50;5050459;28;20100;-83
2022/07/29 07:40:18;;;;;;;3.60;0.80;;;;;;;45.60;18.07;100824.72;5050980;28;20111;-84
2022/07/29 07:42:44;;;;;;;3.80;1.10;;;;;;;45.98;17.77;100826.69;5050576;28;20100;-84
2022/07/29 07:45:10;;;;;;;3.63;0.98;;;;;;;45.63;17.72;100815.72;5050504;28;20028;-84
2022/07/29 07:47:37;;;;;;;8.80;1.27;;;;;;;46.02;17.01;100822.09;5050610;28;20025;-83
2022/07/29 07:50:04;;;;;;;4.82;1.25;;;;;;;44.05;19.23;100805.72;5050531;28;20033;-83
2022/07/29 07:52:29;;;;;;;3.80;1.02;;;;;;;44.79;18.04;100806.88;5050784;28;20410;-83
2022/07/29 07:54:55;;;;;;;3.42;0.82;;;;;;;45.25;18.07;100810.91;5051063;28;20104;-83
2022/07/29 07:57:20;;;;;;;4.93;1.10;;;;;;;45.97;17.49;100830.59;5050331;28;20043;-83
2022/07/29 07:59:45;;;;;;;4.90;1.20;;;;;;;45.73;17.34;100822.91;5050421;28;20486;-83
2022/07/29 08:02:11;;;;;;;;;;;;;;;46.23;17.12;100793.59;5050703;28;20029;-84
2022/07/29 08:04:36;;;;;;;3.05;0.90;;;;;;;45.76;17.32;100757.59;5050618;28;19980;-83
2022/07/29 08:07:02;;;;;;;3.55;1.02;;;;;;;45.65;17.10;100738.56;5050416;28;20025;-83
2022/07/29 08:09:28;;;;;;;4.18;1.10;;;;;;;45.39;17.17;100732.31;5050229;28;20036;-83
2022/07/29 08:11:54;;;;;;;4.82;1.25;;;;;;;46.49;16.48;100715.66;5050284;28;20138;-83
2022/07/29 08:14:20;;;;;;;3.33;0.90;;;;;;;46.36;16.05;100814.75;5050357;28;20025;-83
2022/07/29 08:16:45;;;;;;;1.85;0.63;;;;;;;46.30;17.05;100818.88;5050118;28;20104;-83
2022/07/29 08:19:10;;;;;;;3.30;1.00;;;;;;;45.57;17.19;100791.28;5049855;28;20390;-83
2022/07/29 08:21:36;;;;;;;3.80;1.30;;;;;;;46.57;15.86;100702.88;5050035;28;20066;-83
2022/07/29 08:26:46;;;;;;;5.70;1.45;;;;;;;45.80;16.79;100814.03;5050196;28;20128;-84
2022/07/29 08:29:11;;;;;;;5.32;1.40;;;;;;;44.13;18.09;100821.56;5048544;28;20697;-83
2022/07/29 08:31:38;;;;;;;2.95;0.90;;;;;;;45.52;17.79;100787.56;5049744;28;20028;-83
2022/07/29 08:34:04;;;;;;;5.85;1.23;;;;;;;45.64;17.91;100803.50;5049500;28;20025;-83
2022/07/29 08:36:30;;;;;;;3.60;1.00;;;;;;;43.81;17.89;100813.63;5049848;28;20084;-83
2022/07/29 08:38:56;;;;;;;5.80;1.10;;;;;;;43.15;18.82;100814.16;5049458;28;20056;-83
2022/07/29 08:41:21;;;;;;;3.42;0.85;;;;;;;41.86;20.90;100829.06;5049772;28;20076;-83
2022/07/29 08:43:48;;;;;;;7.45;1.25;;;;;;;42.70;19.02;100819.66;5049671;28;20359;-83
2022/07/29 08:46:14;;;;;;;3.92;1.15;;;;;;;43.51;18.93;100821.59;5049287;28;20061;-83
2022/07/29 08:48:41;;;;;;;4.55;1.35;;;;;;;45.04;17.79;100796.91;5049473;28;20069;-83
2022/07/29 08:51:07;;;;;;;5.50;1.13;;;;;;;46.12;16.71;100806.25;5048902;28;20049;-83
2022/07/29 08:53:34;;;;;;;4.25;0.80;;;;;;;46.53;18.13;100810.22;5049962;28;20024;-83
2022/07/29 08:56:00;;;;;;;5.20;0.95;;;;;;;47.31;16.47;100805.97;5049533;28;20064;-83
2022/07/29 08:58:31;;;;;;;6.15;1.85;;;;;;;46.71;16.48;100806.19;5049181;28;20028;-84
2022/07/29 09:00:57;;;;;;;3.42;1.08;;;;;;;45.67;17.03;100804.81;5049376;28;20223;-83
2022/07/29 09:03:25;;;;;;;4.88;1.15;;;;;;;45.46;16.43;100807.44;5049334;28;20029;-83
2022/07/29 09:05:51;;;;;;;13.30;1.63;;;;;;;45.45;16.43;100803.88;5049248;28;20048;-83
2022/07/29 09:08:17;;;;;;;4.18;1.15;;;;;;;45.05;17.18;100800.53;5049360;28;20367;-83
2022/07/29 09:10:43;;;;;;;7.25;1.33;;;;;;;44.72;17.12;100803.78;5049052;28;20037;-83
2022/07/29 09:13:09;;;;;;;6.35;1.02;;;;;;;45.09;17.11;100807.03;5049258;28;20390;-83
2022/07/29 09:15:34;;;;;;;3.63;1.20;;;;;;;45.33;16.94;100812.06;5049302;28;20473;-83
2022/07/29 09:18:00;;;;;;;3.33;0.80;;;;;;;44.89;16.83;100808.50;5049291;28;20293;-83
2022/07/29 09:21:57;;;;;;;9.52;2.08;;;;;;;43.40;17.95;100806.41;5047591;28;20033;-83
2022/07/29 09:23:13;;;;;;;6.85;1.10;;;;;;;43.69;17.78;100806.75;5048961;28;20119;-83
2022/07/29 09:25:40;;;;;;;4.68;1.13;;;;;;;44.47;17.02;100794.28;5047659;28;20021;-83
2022/07/29 09:28:14;;;;;;;4.32;1.35;;;;;;;43.11;18.53;100804.88;5049049;28;20112;-83
2022/07/29 09:30:54;;;;;;;6.03;1.00;;;;;;;43.26;18.09;100792.63;5047543;28;20422;-83
2022/07/29 09:33:21;;;;;;;4.35;1.60;;;;;;;43.23;17.78;100798.78;5048638;28;20085;-83
2022/07/29 09:35:58;;;;;;;6.45;1.27;;;;;;;43.25;18.71;100788.22;5048843;28;20021;-83
2022/07/29 09:38:23;;;;;;;5.75;1.30;;;;;;;44.07;18.33;100806.22;5048791;28;20029;-83
2022/07/29 09:40:59;;;;;;;2.80;0.90;;;;;;;44.14;17.40;100803.84;5048735;28;20065;-83
2022/07/29 09:43:25;;;;;;;3.00;0.70;;;;;;;44.10;17.41;100802.84;5048778;28;20021;-83
2022/07/29 09:45:50;;;;;;;3.67;0.88;;;;;;;44.32;16.90;100809.41;5048747;28;20447;-83
2022/07/29 09:48:24;;;;;;;2.78;0.80;;;;;;;43.99;17.38;100807.00;5048497;28;20017;-83
2022/07/29 09:50:52;;;;;;;5.07;1.30;;;;;;;44.22;16.89;100812.47;5048653;28;20090;-83
2022/07/29 09:53:37;;;;;;;6.20;1.17;;;;;;;42.48;18.16;100818.47;5047542;28;20435;-83
2022/07/29 09:56:06;;;;;;;7.97;1.30;;;;;;;43.38;18.93;100807.50;5048555;28;20156;-83
2022/07/29 09:58:35;;;;;;;4.63;0.80;;;;;;;43.16;18.30;100813.03;5048935;28;20053;-83
2022/07/29 10:01:01;;;;;;;4.80;1.33;;;;;;;44.59;17.44;100807.50;5048661;28;20486;-83
2022/07/29 10:03:26;;;;;;;3.17;0.75;;;;;;;44.88;17.07;100798.59;5051933;28;20056;-83
2022/07/29 10:06:10;;;;;;;5.13;1.50;;;;;;;44.78;16.59;100802.47;5052142;28;20060;-83
2022/07/29 10:08:36;;;;;;;3.42;0.80;;;;;;;42.88;17.59;100804.88;5051956;28;20026;-83
2022/07/29 10:11:13;;;;;;;3.80;0.73;;;;;;;44.35;17.53;100808.75;5051782;28;20029;-83
2022/07/29 10:13:39;;;;;;;2.67;1.02;;;;;;;43.66;17.13;100807.31;5051933;28;20278;-83
2022/07/29 10:16:06;;;;;;;7.38;0.85;;;;;;;43.36;17.24;100809.78;5051983;28;20056;-83
2022/07/29 10:18:32;;;;;;;2.95;0.90;;;;;;;43.37;17.14;100811.41;5051673;28;20029;-83
2022/07/29 10:20:58;;;;;;;3.17;0.90;;;;;;;42.26;17.43;100804.56;5051777;28;20081;-83
2022/07/29 10:23:24;;;;;;;9.20;1.70;;;;;;;42.97;18.22;100808.53;5051721;28;20104;-83
2022/07/29 10:25:50;;;;;;;2.75;1.00;;;;;;;43.38;18.42;100806.69;5051873;28;20104;-83
2022/07/29 10:28:15;;;;;;;4.45;1.20;;;;;;;43.41;18.65;100805.25;5051849;28;20032;-83
2022/07/29 10:30:41;;;;;;;;;;;;;;;44.56;18.02;100816.47;5051708;28;20036;-83
2022/07/29 10:33:22;;;;;;;2.92;0.80;;;;;;;44.46;16.72;100812.84;5051921;28;20319;-83
2022/07/29 10:36:01;;;;;;;3.38;1.00;;;;;;;44.25;17.62;100811.84;5051655;28;20494;-83
2022/07/29 10:38:49;;;;;;;5.43;1.33;;;;;;;43.76;17.41;100806.25;5051489;28;20049;-83
2022/07/29 10:41:26;;;;;;;3.40;1.08;;;;;;;42.85;17.84;100813.75;5051725;28;20021;-83
2022/07/29 10:44:02;;;;;;;6.82;1.27;;;;;;;43.14;18.26;100807.81;5051351;28;20033;-83
2022/07/29 10:46:28;;;;;;;8.55;1.08;;;;;;;43.40;18.07;100800.88;5051450;28;20069;-83
2022/07/29 10:49:14;;;;;;;2.83;0.88;;;;;;;44.31;17.46;100796.69;5051256;28;20486;-84
2022/07/29 10:52:01;;;;;;;4.72;1.17;;;;;;;43.05;17.80;100795.88;5051423;28;20040;-84
2022/07/29 10:54:35;;;;;;;;;;;;;;;42.38;17.60;100805.69;5051622;28;20027;-83
2022/07/29 10:57:15;;;;;;;;;;;;;;;41.79;17.55;100799.13;5051633;28;19969;-83
2022/07/29 10:59:43;;;;;;;2.63;0.70;;;;;;;42.66;17.16;100791.00;5051178;28;20045;-83
2022/07/29 11:02:33;;;;;;;3.85;0.85;;;;;;;42.47;17.55;100789.22;5051391;28;20033;-83
2022/07/29 11:05:03;;;;;;;3.33;1.10;;;;;;;42.23;17.88;100792.19;5051479;28;20025;-83
2022/07/29 11:07:29;;;;;;;4.65;0.90;;;;;;;42.65;17.52;100792.13;5051156;28;20145;-83
2022/07/29 11:10:12;;;;;;;4.38;1.25;;;;;;;41.09;18.66;100794.50;5049633;28;20382;-83
2022/07/29 11:12:38;;;;;;;4.18;0.90;;;;;;;42.05;17.26;100788.44;5050866;28;20061;-83
2022/07/29 11:15:18;;;;;;;5.93;1.10;;;;;;;41.95;18.08;100789.44;5050620;28;20060;-83
2022/07/29 11:18:00;;;;;;;5.43;0.70;;;;;;;41.74;17.63;100791.75;5051067;28;20025;-83
2022/07/29 11:20:45;;;;;;;2.53;1.10;;;;;;;41.18;18.54;100798.25;5050574;28;20063;-83
2022/07/29 11:23:31;;;;;;;;;;;;;;;41.50;18.03;100794.66;5051220;28;20029;-83
2022/07/29 11:26:24;;;;;;;;;;;;;;;40.88;18.70;100791.25;5051249;28;20040;-83
2022/07/29 11:28:50;;;;;;;;;;;;;;;41.14;17.80;100784.22;5050945;28;19938;-83
2022/07/29 11:31:19;;;;;;;2.70;0.70;;;;;;;40.58;19.04;100779.56;5051161;28;20453;-83
2022/07/29 11:33:45;;;;;;;4.22;0.90;;;;;;;40.41;19.59;100780.91;5050695;28;20037;-83
2022/07/29 11:36:12;;;;;;;2.05;0.50;;;;;;;39.57;19.63;100766.69;5050695;28;20036;-83